Portada
METAR-TAF:

METAR-TAF

Aeroports :

Lahr, Alemanya

latitud: 48-22-09N, longitud: 007-49-40E, altitud: 156 m

Observació

L'informe es va fer fa 17 minuts, a les 15:50 UTC
Vent 11 kt del Sud/Sud-Oest
Temperatura 8°C
Humitat 66%
Pressió 1006 hPa
Visibilitat 10 km o més
Escasses núvols a una alçada de 2600 ft
Cel ennuvolat a una alçada de 6100 ft

METAR: EDTL 121550Z 20011KT 9999 FEW026 BKN061 08/02 Q1006

Hora: 17:07 (16:07 UTC)

Pronòstic

L'informe es va fer fa 2 hores i 7 minuts, a les 14:00 UTC
Pronòstic vàlid del 12 a les 15 UTC al 12 a les 24 UTC
Vent 12 kt del Sud/Sud-Oest
Visibilitat 10 km o més
Núvols disperses a una alçada de 4000 ft
Evolucionant progressivament
l' 12 a les 15 UTC al 12 a les 18 UTC
Vent 5 kt del Sud

TAF: EDTL 121400Z 1215/1224 20012KT 9999 SCT040 BECMG 1215/1218 18005KT

Observacions i pronòstics meteorològics de més de 4000 aeroports (METAR i TAF).

Les estacions disponibles són els punts grocs i vermells al mapa.

Posi el ratolí al punt desitjat per veure el nom de l'estació.

Feu clic per veure les observacions i els pronòstics meteorològics.

Per canviar el mapa: feu clic els botons verds amb una creu de color negre per apropar; al botó verd amb un guió per allunyar la imatge; o en les fletxes verdes per a mapes adjacents.


METAR-TAF: